AFL6509 UUEE-FSIA
Flight info
| Callsign | AFL6509 |
|---|---|
| Flight time | N/A |
| Altitude | 33000 |
| Route | TOGMO3H TOGMO M56 DENUD M161 MILSO M875 AMDAR/N0499F330 M875 TAPIS L509 LAJAK M881 LAKRA/N0505F340 G325 PG T385 TAPDO G652 KUSRA/N0496F360 G652 GEPOT B400 HAI R401 SUHIL UM314 UDLET DCT ROUTY ROUTY1D |
| Aircraft | B77W/H-SDE1E2E3FGHIJ2J3J4J5M1RWXY/LB1D1 |
Departure
| Time | 2026-04-30 17:44 |
|---|---|
| Airport | Sheremetyevo International Airport (UUEE) |
Arrival
| Time | N/A |
|---|---|
| Airport | Seychelles International Airport (FSIA) |
| Time | Latitude | Longitude | Altitude | Speed | Heading |
|---|---|---|---|---|---|
| 2026-04-30 17:39 | 55.97071 | 37.42431 | 647 ft | 29 kts | 75° |
| 2026-04-30 17:41 | 55.97575 | 37.44263 | 649 ft | 17 kts | 300° |
| 2026-04-30 17:42 | 55.97792 | 37.44060 | 647 ft | 3 kts | 287° |
| 2026-04-30 17:42 | 55.97766 | 37.43921 | 649 ft | 0 kts | 256° |
| 2026-04-30 17:43 | 55.97581 | 37.42686 | 646 ft | 121 kts | 255° |
| 2026-04-30 17:44 | 55.96598 | 37.36121 | 1450 ft | 205 kts | 256° |
| 2026-04-30 17:44 | 55.95419 | 37.28375 | 3117 ft | 222 kts | 257° |
| 2026-04-30 17:46 | 55.93187 | 37.14508 | 5453 ft | 260 kts | 255° |
| 2026-04-30 17:47 | 55.91037 | 37.01801 | 8081 ft | 272 kts | 255° |
| 2026-04-30 17:48 | 55.88793 | 36.88628 | 10011 ft | 286 kts | 255° |
| 2026-04-30 17:48 | 55.86494 | 36.79010 | 11323 ft | 292 kts | 221° |
| 2026-04-30 17:49 | 55.81064 | 36.77598 | 12946 ft | 302 kts | 165° |
| 2026-04-30 17:50 | 55.72253 | 36.82457 | 14562 ft | 353 kts | 162° |
| 2026-04-30 17:51 | 55.65112 | 36.86507 | 16538 ft | 364 kts | 161° |
| 2026-04-30 17:52 | 55.57747 | 36.90654 | 18488 ft | 376 kts | 161° |
| 2026-04-30 17:53 | 55.46485 | 37.02176 | 20146 ft | 410 kts | 123° |
| 2026-04-30 17:54 | 55.38757 | 37.18021 | 21935 ft | 438 kts | 130° |
| 2026-04-30 17:55 | 55.30323 | 37.34026 | 24028 ft | 453 kts | 130° |
| 2026-04-30 17:56 | 55.21657 | 37.50488 | 25740 ft | 464 kts | 130° |
| 2026-04-30 17:57 | 55.15026 | 37.63018 | 26932 ft | 473 kts | 130° |
| 2026-04-30 17:58 | 55.08201 | 37.75845 | 28035 ft | 482 kts | 131° |
| 2026-04-30 17:59 | 54.98939 | 37.93141 | 29324 ft | 494 kts | 131° |
| 2026-04-30 18:00 | 54.89448 | 38.10734 | 30528 ft | 500 kts | 131° |
| 2026-04-30 18:00 | 54.82297 | 38.23903 | 31413 ft | 499 kts | 132° |
| 2026-04-30 18:01 | 54.77528 | 38.32646 | 31975 ft | 499 kts | 132° |
| 2026-04-30 18:02 | 54.70364 | 38.45722 | 32806 ft | 499 kts | 133° |
| 2026-04-30 18:02 | 54.63159 | 38.58800 | 33204 ft | 503 kts | 133° |
| 2026-04-30 18:04 | 54.51261 | 38.80243 | 33223 ft | 497 kts | 133° |
| 2026-04-30 18:06 | 54.35042 | 39.18006 | 33227 ft | 496 kts | 110° |
| 2026-04-30 18:08 | 54.26261 | 39.54580 | 33212 ft | 499 kts | 112° |
| 2026-04-30 18:10 | 54.16504 | 39.94160 | 33212 ft | 498 kts | 113° |
| 2026-04-30 18:11 | 54.09072 | 40.28369 | 33222 ft | 498 kts | 106° |
| 2026-04-30 18:13 | 54.04197 | 40.56492 | 33215 ft | 499 kts | 107° |
| 2026-04-30 18:14 | 53.99156 | 40.84750 | 33210 ft | 500 kts | 107° |
| 2026-04-30 18:15 | 53.93237 | 41.18710 | 33205 ft | 499 kts | 105° |
| 2026-04-30 18:16 | 53.89558 | 41.41432 | 33208 ft | 499 kts | 106° |
| 2026-04-30 18:17 | 53.88463 | 41.48035 | 33210 ft | 499 kts | 106° |
| 2026-04-30 18:18 | 53.85642 | 41.64935 | 33203 ft | 499 kts | 106° |
| 2026-04-30 18:18 | 53.83730 | 41.76305 | 33204 ft | 499 kts | 107° |
| 2026-04-30 18:19 | 53.81801 | 41.87570 | 33202 ft | 498 kts | 107° |
| 2026-04-30 18:19 | 53.79849 | 41.98845 | 33205 ft | 498 kts | 107° |
| 2026-04-30 18:20 | 53.77906 | 42.10017 | 33202 ft | 498 kts | 107° |
| 2026-04-30 18:20 | 53.75944 | 42.21250 | 33200 ft | 500 kts | 107° |
| 2026-04-30 18:21 | 53.73932 | 42.32690 | 33211 ft | 509 kts | 107° |
| 2026-04-30 18:21 | 53.71901 | 42.44172 | 33205 ft | 517 kts | 107° |
| 2026-04-30 18:22 | 53.69799 | 42.55976 | 33200 ft | 524 kts | 107° |
| 2026-04-30 18:22 | 53.66662 | 42.73753 | 33181 ft | 529 kts | 106° |
| 2026-04-30 18:23 | 53.64792 | 42.85776 | 33183 ft | 530 kts | 105° |
| 2026-04-30 18:23 | 53.62981 | 42.97599 | 33172 ft | 530 kts | 105° |
| 2026-04-30 18:24 | 53.60128 | 43.15619 | 33169 ft | 527 kts | 106° |
| 2026-04-30 18:25 | 53.58201 | 43.27562 | 33167 ft | 525 kts | 106° |
| 2026-04-30 18:25 | 53.55312 | 43.45339 | 33160 ft | 523 kts | 107° |
| 2026-04-30 18:26 | 53.52400 | 43.63098 | 33151 ft | 522 kts | 107° |
| 2026-04-30 18:27 | 53.49480 | 43.80730 | 33146 ft | 522 kts | 107° |
| 2026-04-30 18:28 | 53.46526 | 43.98332 | 33139 ft | 522 kts | 107° |
| 2026-04-30 18:28 | 53.43529 | 44.15967 | 33129 ft | 523 kts | 108° |
| 2026-04-30 18:29 | 53.39498 | 44.39449 | 33117 ft | 523 kts | 108° |
| 2026-04-30 18:30 | 53.35418 | 44.62960 | 33114 ft | 524 kts | 108° |
| 2026-04-30 18:31 | 53.32418 | 44.80236 | 33115 ft | 523 kts | 108° |
| 2026-04-30 18:32 | 53.29327 | 44.97864 | 33113 ft | 523 kts | 108° |
| 2026-04-30 18:33 | 53.26014 | 45.15080 | 33115 ft | 521 kts | 112° |
| 2026-04-30 18:33 | 53.22240 | 45.32143 | 33108 ft | 520 kts | 112° |
| 2026-04-30 18:34 | 53.18495 | 45.49153 | 33107 ft | 519 kts | 112° |
| 2026-04-30 18:35 | 53.16778 | 45.56949 | 33107 ft | 519 kts | 112° |